SLRY  Reyes  Airport

Reyes, Bolivia

Add Bookmark
ICAO SLRY
IATA REY
Type Airport
Status Operational
Latitude
14° 18' 15" S
-14.304400
Longitude
67° 21' 12" W
-67.353401
Local (GMT -4 ) UTC
May 28, 2016 03:55 am May 28, 2016 07:55
Sunrise-Sunset Local UTC
Begin Civil Twilight 06:22 am 10:22
Sunrise 06:45 am 10:45
Sunset 06:08 pm 22:08
End Civil Twilight 06:31 pm 22:31
VFR
VFR
MVFR
MVFR
IFR
IFR
LIFR
LIFR
Unknown
Unavailable

Current Weather

METAR Observed MVFR
SLRY 272200Z 18003KT 9999 OVC023 21/18 Q1016 Fri, May 27, 2016 @ 22:00 UTC
(9 Hours, 55 Minutes ago)
Marginal Visual Flight Rules
Wind Visibility Clouds Conditions
180° at 3 knots (6 kph) 10 km or more
  • Overcast at 2,300 ft AGL
  • No significant weather
Temperatures Readings Precipitation
Current Temp
21°C
70°F
Dewpoint
18°C
64°F
Humidity 83%
Altimeter 30" Hg
Sea Level Pressure 1,016 mb
Field Elevation
280 m
919 ft
None Recorded

Additional weather within a 92.6km radius of SLRY

Map ICAO Location
SLRQ 20.7km SW (229°)
VFR
VFR
MVFR
MVFR
IFR
IFR
LIFR
LIFR
Unknown
Unavailable
-
-

CheckWX.com is intended as a tool to help pilots better visualize weather data. It is not intended as a substitute for an official weather briefing obtained from a Flight Service Station. CheckWX.com does not meet the FAA requirements for an official pre-flight weather briefing. Therefore, it's important that pilots still call and obtain an official FSS pre-flight weather briefing.

© 2007-2016 CheckWX.com
07:55:43 UTC